Terminal Aerodrome Forecast
Issued by NWS

Home | Current Version | Previous Version | Text Only | Print | Product List | Glossary On
Versions: 1 2 3 4 5 6 7 8 9 10 11 12 13 14 15 16 17 18 19 20 21 22 23 24 25 26 27 28
000
FTUS46 KEKA 170637 AAA
TAFCEC
TAF AMD
KCEC 170637Z 1707/1806 00000KT 6SM BR FEW015
      TEMPO 1707/1710 4SM BR SCT012
     FM171000 35010KT 3SM BR BKN010
     FM171700 35006KT P6SM SCT009
     FM172200 34011KT P6SM SKC=

USA.gov is the U.S. government's official web portal to all federal, state and local government web resources and services.